Time;durP1;ratioP1;P1;durP2;ratioP2;P2;SDS_P1;SDS_P2;PMS_P1;PMS_P2;Temp;Humidity;BMP_temperature;BMP_pressure;BME280_temperature;BME280_humidity;BME280_pressure;Samples;Min_cycle;Max_cycle;Signal;HPM_P1;HPM_P2
2021/12/16 00:08:05;;;;;;;;;;;0.60;87.70;;;;;;5084837;27;87065;-42
2021/12/16 00:10:50;;;;;;;;;;;0.60;87.90;;;;;;5084367;27;89005;-42
2021/12/16 00:34:32;;;;;;;;;;;0.60;87.60;;;;;;5083653;27;89291;-42
2021/12/16 00:36:58;;;;;;;;;;;0.60;87.70;;;;;;5084358;27;86889;-42
2021/12/16 00:39:26;;;;;;;;;;;0.70;87.50;;;;;;5083886;27;88833;-42
2021/12/16 00:41:58;;;;;;;;;;;0.70;87.30;;;;;;5086419;27;89479;-41
2021/12/16 00:44:50;;;;;;;;;;;0.70;87.40;;;;;;5084035;27;88673;-41
2021/12/16 00:49:46;;;;;;;;;;;0.60;87.60;;;;;;5083927;27;87066;-42
2021/12/16 00:55:08;;;;;;;;;;;0.60;87.30;;;;;;5082613;27;87952;-42
2021/12/16 00:57:34;;;;;;;;;;;0.60;87.30;;;;;;5083846;27;86963;-42
2021/12/16 01:00:03;;;;;;;;;;;0.60;87.40;;;;;;5083431;27;88735;-42
2021/12/16 01:05:45;;;;;;;;;;;0.60;87.30;;;;;;5086253;27;86952;-41
2021/12/16 01:38:35;;;;;;;;;;;0.60;87.60;;;;;;5086737;27;87853;-42
2021/12/16 01:56:33;;;;;;;;;;;0.50;87.70;;;;;;5086727;27;87100;-42
2021/12/16 01:59:03;;;;;;;;;;;0.50;87.70;;;;;;5085921;27;89624;-42
2021/12/16 02:01:32;;;;;;;;;;;0.50;87.80;;;;;;5086306;27;86787;-41
2021/12/16 02:04:02;;;;;;;;;;;0.50;87.70;;;;;;5086256;27;88829;-41
2021/12/16 02:09:05;;;;;;;;;;;0.50;87.90;;;;;;5084531;27;87098;-41
2021/12/16 02:35:58;;;;;;;;;;;0.50;87.80;;;;;;5085740;27;87980;-41
2021/12/16 02:38:28;;;;;;;;;;;0.50;87.90;;;;;;5088932;27;87030;-41
2021/12/16 02:40:54;;;;;;;;;;;0.50;87.70;;;;;;5084622;27;90340;-42
2021/12/16 02:43:50;;;;;;;;;;;0.50;87.80;;;;;;5085695;27;87106;-41
2021/12/16 02:48:39;;;;;;;;;;;0.50;87.90;;;;;;5085544;27;87890;-42
2021/12/16 02:51:09;;;;;;;;;;;0.50;87.70;;;;;;5085726;27;87137;-42
2021/12/16 02:53:36;;;;;;;;;;;0.50;87.50;;;;;;5085779;27;87123;-41
2021/12/16 02:56:03;;;;;;;;;;;0.50;87.70;;;;;;5085203;27;89350;-41
2021/12/16 02:58:28;;;;;;;;;;;0.50;87.60;;;;;;5085286;27;86396;-42
2021/12/16 03:01:00;;;;;;;;;;;0.50;87.60;;;;;;5088184;27;88341;-41
2021/12/16 03:03:26;;;;;;;;;;;0.50;87.70;;;;;;5067115;27;87003;-41
2021/12/16 03:05:52;;;;;;;;;;;0.40;87.70;;;;;;5084745;27;88960;-41
2021/12/16 03:08:18;;;;;;;;;;;0.40;87.80;;;;;;5085064;27;89826;-43
2021/12/16 03:13:25;;;;;;;;;;;0.40;87.70;;;;;;5085281;27;86843;-41
2021/12/16 03:18:35;;;;;;;;;;;0.40;87.70;;;;;;5085352;27;87109;-42
2021/12/16 03:21:10;;;;;;;;;;;0.40;87.80;;;;;;5085181;27;88954;-41
2021/12/16 03:23:59;;;;;;;;;;;0.40;87.90;;;;;;5088095;27;88739;-42
2021/12/16 03:32:14;;;;;;;;;;;0.40;87.70;;;;;;5084511;27;87915;-41
2021/12/16 03:39:44;;;;;;;;;;;0.40;87.80;;;;;;5083859;27;86943;-41
2021/12/16 03:42:10;;;;;;;;;;;0.40;87.90;;;;;;5084754;27;88544;-42
2021/12/16 03:44:58;;;;;;;;;;;0.40;87.80;;;;;;5084365;27;89003;-41
2021/12/16 03:47:30;;;;;;;;;;;0.40;87.80;;;;;;5087866;27;86860;-42
2021/12/16 03:49:56;;;;;;;;;;;0.40;87.80;;;;;;5084969;27;88895;-41
2021/12/16 03:52:22;;;;;;;;;;;0.40;87.70;;;;;;5084676;27;87042;-42
2021/12/16 03:54:51;;;;;;;;;;;0.40;87.60;;;;;;5084821;27;89016;-41
2021/12/16 03:57:18;;;;;;;;;;;0.40;87.80;;;;;;5083684;27;89454;-41
2021/12/16 03:59:44;;;;;;;;;;;0.40;87.90;;;;;;5084206;27;87125;-42
2021/12/16 04:02:13;;;;;;;;;;;0.40;87.80;;;;;;5084462;27;89127;-41
2021/12/16 04:04:40;;;;;;;;;;;0.40;87.70;;;;;;5083939;27;89663;-42
2021/12/16 04:07:06;;;;;;;;;;;0.40;88.00;;;;;;5087455;27;87166;-41
2021/12/16 04:09:33;;;;;;;;;;;0.40;87.80;;;;;;5083878;27;89855;-41
2021/12/16 04:12:08;;;;;;;;;;;0.40;87.80;;;;;;5084311;27;86854;-41
2021/12/16 04:14:35;;;;;;;;;;;0.40;88.00;;;;;;5084782;27;88825;-42
2021/12/16 04:17:03;;;;;;;;;;;0.40;87.90;;;;;;5083922;27;89567;-41
2021/12/16 04:19:30;;;;;;;;;;;0.40;87.90;;;;;;5084203;27;87100;-42
2021/12/16 04:22:07;;;;;;;;;;;0.40;87.90;;;;;;5083494;27;88338;-41
2021/12/16 04:24:33;;;;;;;;;;;0.40;87.90;;;;;;5083994;27;89474;-40
2021/12/16 04:26:59;;;;;;;;;;;0.40;87.90;;;;;;5084382;27;87111;-42
2021/12/16 04:29:25;;;;;;;;;;;0.40;87.90;;;;;;5086679;27;88779;-41
2021/12/16 04:31:51;;;;;;;;;;;0.40;87.90;;;;;;5084095;27;86990;-42
2021/12/16 04:34:17;;;;;;;;;;;0.40;87.90;;;;;;5084037;27;89398;-42
2021/12/16 04:36:43;;;;;;;;;;;0.40;88.10;;;;;;5083503;27;89297;-42
2021/12/16 04:39:10;;;;;;;;;;;0.40;87.90;;;;;;5084345;27;86500;-41
2021/12/16 04:41:37;;;;;;;;;;;0.40;87.90;;;;;;5083905;27;88043;-41
2021/12/16 04:44:06;;;;;;;;;;;0.40;88.00;;;;;;5065222;27;91821;-41
2021/12/16 04:46:32;;;;;;;;;;;0.40;87.90;;;;;;5083162;27;88082;-42
2021/12/16 04:48:59;;;;;;;;;;;0.40;87.90;;;;;;5085610;27;88216;-41
2021/12/16 04:51:26;;;;;;;;;;;0.40;87.90;;;;;;5089945;27;89209;-41
2021/12/16 04:53:52;;;;;;;;;;;0.40;87.80;;;;;;5087355;27;88809;-41
2021/12/16 04:56:18;;;;;;;;;;;0.40;87.90;;;;;;5087097;27;89637;-43
2021/12/16 04:58:45;;;;;;;;;;;0.30;87.80;;;;;;5086755;27;87166;-41
2021/12/16 05:01:11;;;;;;;;;;;0.40;87.90;;;;;;5087428;27;89358;-41
2021/12/16 05:03:36;;;;;;;;;;;0.40;88.10;;;;;;5087591;27;88681;-41
2021/12/16 05:06:02;;;;;;;;;;;0.40;87.90;;;;;;5087271;27;87023;-41
2021/12/16 05:08:28;;;;;;;;;;;0.30;88.10;;;;;;5087305;27;88859;-41
2021/12/16 05:10:56;;;;;;;;;;;0.40;88.10;;;;;;5086333;27;90278;-41
2021/12/16 05:13:25;;;;;;;;;;;0.30;87.90;;;;;;5090261;27;87104;-42
2021/12/16 05:15:52;;;;;;;;;;;0.30;87.80;;;;;;5086663;27;89272;-41
2021/12/16 05:18:31;;;;;;;;;;;0.30;87.90;;;;;;5087200;27;87107;-42
2021/12/16 05:20:58;;;;;;;;;;;0.30;88.00;;;;;;5087228;27;88666;-42
2021/12/16 05:28:37;;;;;;;;;;;0.30;88.00;;;;;;5087596;27;87439;-42
2021/12/16 05:31:03;;;;;;;;;;;0.30;87.90;;;;;;5086539;27;89764;-42
2021/12/16 05:33:28;;;;;;;;;;;0.30;88.50;;;;;;5086841;27;87200;-42
2021/12/16 05:35:54;;;;;;;;;;;0.30;88.00;;;;;;5089158;27;87837;-41
2021/12/16 05:38:21;;;;;;;;;;;0.30;87.90;;;;;;5086860;27;87177;-42
2021/12/16 05:40:46;;;;;;;;;;;0.30;88.10;;;;;;5086873;27;88996;-40
2021/12/16 05:43:13;;;;;;;;;;;0.30;88.00;;;;;;5086459;27;88104;-41
2021/12/16 05:45:39;;;;;;;;;;;0.30;87.90;;;;;;5086626;27;87029;-40
2021/12/16 05:48:09;;;;;;;;;;;0.30;88.00;;;;;;5086727;27;89160;-41
2021/12/16 05:50:36;;;;;;;;;;;0.30;87.80;;;;;;5086190;27;89751;-41
2021/12/16 05:53:02;;;;;;;;;;;0.30;88.00;;;;;;5087182;27;86513;-41
2021/12/16 05:55:28;;;;;;;;;;;0.30;88.00;;;;;;5086693;27;88575;-41
2021/12/16 05:57:56;;;;;;;;;;;0.30;88.10;;;;;;5088778;27;89590;-41
2021/12/16 06:00:23;;;;;;;;;;;0.30;87.90;;;;;;5084700;27;88656;-41
2021/12/16 06:02:50;;;;;;;;;;;0.30;87.90;;;;;;5085949;27;89937;-42
2021/12/16 06:05:16;;;;;;;;;;;0.30;88.10;;;;;;5086377;27;87111;-40
2021/12/16 06:07:42;;;;;;;;;;;0.30;88.10;;;;;;5086504;27;88717;-41
2021/12/16 06:10:17;;;;;;;;;;;0.30;88.00;;;;;;5086379;27;87824;-41
2021/12/16 06:12:43;;;;;;;;;;;0.30;88.10;;;;;;5086326;27;86905;-42
2021/12/16 06:28:19;;;;;;;;;;;0.30;88.10;;;;;;5086425;27;87574;-41
2021/12/16 06:30:45;;;;;;;;;;;0.30;87.90;;;;;;5085500;27;89152;-41
2021/12/16 06:33:12;;;;;;;;;;;0.30;88.10;;;;;;5085764;27;87155;-40
2021/12/16 06:35:38;;;;;;;;;;;0.30;88.10;;;;;;5086026;27;87369;-42
2021/12/16 06:38:03;;;;;;;;;;;0.30;88.10;;;;;;5085193;27;88611;-41
2021/12/16 06:40:29;;;;;;;;;;;0.30;88.00;;;;;;5088670;27;87084;-41
2021/12/16 06:42:57;;;;;;;;;;;0.30;88.30;;;;;;5086091;27;85996;-42
2021/12/16 06:45:27;;;;;;;;;;;0.30;88.10;;;;;;5085553;27;87215;-41
2021/12/16 06:48:04;;;;;;;;;;;0.30;88.10;;;;;;5085970;27;89298;-41
2021/12/16 06:53:22;;;;;;;;;;;0.30;88.10;;;;;;5083529;27;86840;-41
2021/12/16 06:56:14;;;;;;;;;;;0.30;88.20;;;;;;5085886;27;89224;-42
2021/12/16 07:01:37;;;;;;;;;;;0.30;88.20;;;;;;5041786;27;88355;-40
2021/12/16 07:04:04;;;;;;;;;;;0.30;88.20;;;;;;5088287;27;88815;-42
2021/12/16 07:06:30;;;;;;;;;;;0.30;88.10;;;;;;5085478;27;87143;-42
2021/12/16 07:09:13;;;;;;;;;;;0.30;88.10;;;;;;5085990;27;88846;-42
2021/12/16 07:11:42;;;;;;;;;;;0.30;88.10;;;;;;5084751;27;89467;-42
2021/12/16 07:14:13;;;;;;;;;;;0.30;88.20;;;;;;5085452;27;87176;-42
2021/12/16 07:16:39;;;;;;;;;;;0.30;88.10;;;;;;5084736;27;88700;-41
2021/12/16 07:19:04;;;;;;;;;;;0.30;88.10;;;;;;5085099;27;89747;-42
2021/12/16 07:21:37;;;;;;;;;;;0.30;88.20;;;;;;5085332;27;87034;-42
2021/12/16 07:24:06;;;;;;;;;;;0.30;88.00;;;;;;5085005;27;89247;-42
2021/12/16 07:26:32;;;;;;;;;;;0.30;88.10;;;;;;5087832;27;87923;-42
2021/12/16 07:28:58;;;;;;;;;;;0.30;88.20;;;;;;5085068;27;89300;-42
2021/12/16 07:31:23;;;;;;;;;;;0.30;88.00;;;;;;5084579;27;89360;-42
2021/12/16 07:33:49;;;;;;;;;;;0.30;88.10;;;;;;5085287;27;86275;-41
2021/12/16 07:36:18;;;;;;;;;;;0.30;88.30;;;;;;5085117;27;87520;-42
2021/12/16 07:38:44;;;;;;;;;;;0.30;88.00;;;;;;5084438;27;89663;-42
2021/12/16 07:41:10;;;;;;;;;;;0.30;88.00;;;;;;5084498;27;88032;-42
2021/12/16 07:46:11;;;;;;;;;;;0.30;88.10;;;;;;5083365;27;87882;-43
2021/12/16 07:48:37;;;;;;;;;;;0.30;88.10;;;;;;5087674;27;87034;-41
2021/12/16 07:51:03;;;;;;;;;;;0.30;88.00;;;;;;5084393;27;89950;-41
2021/12/16 07:53:29;;;;;;;;;;;0.30;88.00;;;;;;5084716;27;87126;-42
2021/12/16 07:55:55;;;;;;;;;;;0.30;88.00;;;;;;5084795;27;87682;-42
2021/12/16 07:58:23;;;;;;;;;;;0.30;88.00;;;;;;5084444;27;87872;-42
2021/12/16 08:00:50;;;;;;;;;;;0.30;88.00;;;;;;5084668;27;86921;-41
2021/12/16 08:03:17;;;;;;;;;;;0.30;88.10;;;;;;5084378;27;88118;-42
2021/12/16 08:05:46;;;;;;;;;;;0.30;87.90;;;;;;5083394;27;90733;-42
2021/12/16 08:08:12;;;;;;;;;;;0.30;88.10;;;;;;5084585;27;87098;-42
2021/12/16 08:10:37;;;;;;;;;;;0.40;88.10;;;;;;5086929;27;88969;-41
2021/12/16 08:13:04;;;;;;;;;;;0.30;88.00;;;;;;5084612;27;87165;-42
2021/12/16 08:15:30;;;;;;;;;;;0.30;88.00;;;;;;5084264;27;89031;-42
2021/12/16 08:17:56;;;;;;;;;;;0.30;88.00;;;;;;5083960;27;89536;-41
2021/12/16 08:20:21;;;;;;;;;;;0.30;88.10;;;;;;5084116;27;87106;-41
2021/12/16 08:22:48;;;;;;;;;;;0.30;87.90;;;;;;5084184;27;88141;-42
2021/12/16 08:25:15;;;;;;;;;;;0.30;87.90;;;;;;5083546;27;89629;-41
2021/12/16 08:27:41;;;;;;;;;;;0.40;87.80;;;;;;5084160;27;87072;-43
2021/12/16 08:30:07;;;;;;;;;;;0.40;87.70;;;;;;5086155;27;88861;-41
2021/12/16 08:32:33;;;;;;;;;;;0.30;87.90;;;;;;5084193;27;86831;-42
2021/12/16 08:34:59;;;;;;;;;;;0.40;87.90;;;;;;5084062;27;89145;-42
2021/12/16 08:37:25;;;;;;;;;;;0.30;87.80;;;;;;5084059;27;88812;-42
2021/12/16 08:39:51;;;;;;;;;;;0.40;87.70;;;;;;5084140;27;87060;-42
2021/12/16 08:42:17;;;;;;;;;;;0.40;87.90;;;;;;5084277;27;87357;-42
2021/12/16 08:44:42;;;;;;;;;;;0.40;87.80;;;;;;5083496;27;89671;-42
2021/12/16 08:47:10;;;;;;;;;;;0.40;87.80;;;;;;5084394;27;86206;-42
2021/12/16 08:49:36;;;;;;;;;;;0.40;87.90;;;;;;5083629;27;88668;-42
2021/12/16 08:52:04;;;;;;;;;;;0.40;87.60;;;;;;5086634;27;88282;-42
2021/12/16 08:54:31;;;;;;;;;;;0.40;87.70;;;;;;5083242;27;88892;-42
2021/12/16 08:56:57;;;;;;;;;;;0.40;87.70;;;;;;5083532;27;88837;-42
2021/12/16 08:59:24;;;;;;;;;;;0.40;87.80;;;;;;5083207;27;86829;-42
2021/12/16 09:01:52;;;;;;;;;;;0.40;88.10;;;;;;5083741;27;88805;-42
2021/12/16 09:04:19;;;;;;;;;;;0.50;87.80;;;;;;5083323;27;89660;-43
2021/12/16 09:06:46;;;;;;;;;;;0.50;87.70;;;;;;5083700;27;86972;-42
2021/12/16 09:09:12;;;;;;;;;;;0.60;87.10;;;;;;5083780;27;89007;-42
2021/12/16 09:11:44;;;;;;;;;;;0.60;86.80;;;;;;5083906;27;88569;-42
2021/12/16 09:14:09;;;;;;;;;;;0.60;87.00;;;;;;5086743;27;86967;-42
2021/12/16 09:16:35;;;;;;;;;;;0.70;86.90;;;;;;5083564;27;87623;-42
2021/12/16 09:19:03;;;;;;;;;;;0.60;86.80;;;;;;5082815;27;88070;-42
2021/12/16 09:21:30;;;;;;;;;;;0.60;87.20;;;;;;5083480;27;89806;-43
2021/12/16 09:23:56;;;;;;;;;;;0.60;86.80;;;;;;5082966;27;89659;-42
2021/12/16 09:26:22;;;;;;;;;;;0.60;87.40;;;;;;5083575;27;87114;-42
2021/12/16 09:28:48;;;;;;;;;;;0.60;87.00;;;;;;5083317;27;88763;-42
2021/12/16 09:31:14;;;;;;;;;;;0.60;87.20;;;;;;5083003;27;89133;-42
2021/12/16 09:33:43;;;;;;;;;;;0.60;87.50;;;;;;5083060;27;86947;-42
2021/12/16 09:36:09;;;;;;;;;;;0.60;87.30;;;;;;5087994;27;88744;-42
2021/12/16 09:38:35;;;;;;;;;;;0.60;87.10;;;;;;5086762;27;87123;-42
2021/12/16 09:41:00;;;;;;;;;;;0.60;87.10;;;;;;5086837;27;88690;-41
2021/12/16 09:43:29;;;;;;;;;;;0.60;87.20;;;;;;5085807;27;88331;-42
2021/12/16 09:45:57;;;;;;;;;;;0.60;87.10;;;;;;5086852;27;86973;-42
2021/12/16 09:48:22;;;;;;;;;;;0.60;87.20;;;;;;5086571;27;88739;-42
2021/12/16 09:50:48;;;;;;;;;;;0.60;87.50;;;;;;5086299;27;89474;-42
2021/12/16 09:53:14;;;;;;;;;;;0.60;87.40;;;;;;5086820;27;87126;-42
2021/12/16 09:55:40;;;;;;;;;;;0.60;87.30;;;;;;5086720;27;88100;-42
2021/12/16 09:58:06;;;;;;;;;;;0.50;87.50;;;;;;5088820;27;88275;-42
2021/12/16 10:00:32;;;;;;;;;;;0.50;87.60;;;;;;5087052;27;88721;-43
2021/12/16 10:03:00;;;;;;;;;;;0.50;87.40;;;;;;5085679;27;89616;-42
2021/12/16 10:05:25;;;;;;;;;;;0.50;87.40;;;;;;5086364;27;87115;-42
2021/12/16 10:07:51;;;;;;;;;;;0.50;87.50;;;;;;5085887;27;88670;-43
2021/12/16 10:10:19;;;;;;;;;;;0.50;87.50;;;;;;5085956;27;89717;-43
2021/12/16 10:12:48;;;;;;;;;;;0.50;87.50;;;;;;5086336;27;87136;-43
2021/12/16 10:18:18;;;;;;;;;;;0.50;87.60;;;;;;5083639;27;87921;-43
2021/12/16 10:20:52;;;;;;;;;;;0.60;87.60;;;;;;5089121;27;87042;-43
2021/12/16 10:23:20;;;;;;;;;;;0.60;87.50;;;;;;5085600;27;89495;-42
2021/12/16 10:25:56;;;;;;;;;;;0.50;87.30;;;;;;5086453;27;86368;-43
2021/12/16 10:28:24;;;;;;;;;;;0.60;87.50;;;;;;5086063;27;88052;-42
2021/12/16 10:30:52;;;;;;;;;;;0.50;87.40;;;;;;5085611;27;89398;-43
2021/12/16 10:33:27;;;;;;;;;;;0.50;87.60;;;;;;5085269;27;88004;-42
2021/12/16 10:35:58;;;;;;;;;;;0.50;87.50;;;;;;5086143;27;88867;-42
2021/12/16 10:38:25;;;;;;;;;;;0.50;87.60;;;;;;5085229;27;90083;-42
2021/12/16 10:40:52;;;;;;;;;;;0.60;87.70;;;;;;5088827;27;87090;-42
2021/12/16 10:43:24;;;;;;;;;;;0.50;87.70;;;;;;5085320;27;89753;-42
2021/12/16 10:45:52;;;;;;;;;;;0.60;87.40;;;;;;5085523;27;87173;-42
2021/12/16 10:48:20;;;;;;;;;;;0.50;88.20;;;;;;5085503;27;88812;-42
2021/12/16 10:50:52;;;;;;;;;;;0.60;87.70;;;;;;5085823;27;88861;-42
2021/12/16 10:53:36;;;;;;;;;;;0.60;87.60;;;;;;5085587;27;87217;-42
2021/12/16 10:56:03;;;;;;;;;;;0.60;87.40;;;;;;5085872;27;88987;-42
2021/12/16 10:58:48;;;;;;;;;;;0.60;87.70;;;;;;5084066;27;90713;-42
2021/12/16 11:01:31;;;;;;;;;;;0.60;87.50;;;;;;5085597;27;87215;-42
2021/12/16 11:03:57;;;;;;;;;;;0.60;87.60;;;;;;5088099;27;88042;-42
2021/12/16 11:06:30;;;;;;;;;;;0.60;87.70;;;;;;5085451;27;87105;-42
2021/12/16 11:09:16;;;;;;;;;;;0.50;87.50;;;;;;5085394;27;89079;-42
2021/12/16 11:11:41;;;;;;;;;;;0.60;87.60;;;;;;5085110;27;88076;-43
2021/12/16 11:14:07;;;;;;;;;;;0.60;87.70;;;;;;5085155;27;87189;-42
2021/12/16 11:16:34;;;;;;;;;;;0.60;87.70;;;;;;5085995;27;88865;-42
2021/12/16 11:19:00;;;;;;;;;;;0.60;87.70;;;;;;5084856;27;91099;-42
2021/12/16 11:21:39;;;;;;;;;;;0.60;87.60;;;;;;5085299;27;87594;-43
2021/12/16 11:24:25;;;;;;;;;;;0.60;87.70;;;;;;5084655;27;89119;-43
2021/12/16 11:26:51;;;;;;;;;;;0.50;87.70;;;;;;5087514;27;89648;-42
2021/12/16 11:29:17;;;;;;;;;;;0.50;87.80;;;;;;5085216;27;88848;-42
2021/12/16 11:31:44;;;;;;;;;;;0.60;87.80;;;;;;5084838;27;89632;-43
2021/12/16 11:34:10;;;;;;;;;;;0.60;87.70;;;;;;5084798;27;87164;-42
2021/12/16 11:36:36;;;;;;;;;;;0.60;87.70;;;;;;5084961;27;88950;-43
2021/12/16 11:39:12;;;;;;;;;;;0.60;87.60;;;;;;5084401;27;89376;-42
2021/12/16 11:41:40;;;;;;;;;;;0.50;87.80;;;;;;5085755;27;86354;-42
2021/12/16 11:44:16;;;;;;;;;;;0.60;87.70;;;;;;5084749;27;87828;-42
2021/12/16 11:46:43;;;;;;;;;;;0.60;87.80;;;;;;5084458;27;89477;-43
2021/12/16 11:49:27;;;;;;;;;;;0.60;87.70;;;;;;5087149;27;88102;-42
2021/12/16 11:51:56;;;;;;;;;;;0.60;87.80;;;;;;5084628;27;89255;-42
2021/12/16 11:54:22;;;;;;;;;;;0.60;87.80;;;;;;5084726;27;87157;-42
2021/12/16 11:56:53;;;;;;;;;;;0.60;87.90;;;;;;5084650;27;88681;-43
2021/12/16 11:59:55;;;;;;;;;;;0.60;87.70;;;;;;5082601;27;89098;-42
2021/12/16 12:02:23;;;;;;;;;;;0.60;87.50;;;;;;4981682;28;87346;-42
2021/12/16 12:04:49;;;;;;;;;;;0.60;87.70;;;;;;5065134;27;88755;-42
2021/12/16 12:07:16;;;;;;;;;;;0.60;87.90;;;;;;5084706;27;88686;-42
2021/12/16 12:09:43;;;;;;;;;;;0.60;87.80;;;;;;5084304;27;86966;-42
2021/12/16 12:12:09;;;;;;;;;;;0.60;87.90;;;;;;5087073;27;88779;-42
2021/12/16 12:14:35;;;;;;;;;;;0.60;87.90;;;;;;5083514;27;88191;-43
2021/12/16 12:17:05;;;;;;;;;;;0.60;87.90;;;;;;5084373;27;89816;-42
2021/12/16 12:19:31;;;;;;;;;;;0.60;87.90;;;;;;5083855;27;89769;-42
2021/12/16 12:22:00;;;;;;;;;;;0.60;87.80;;;;;;5084094;27;87190;-42
2021/12/16 12:24:26;;;;;;;;;;;0.60;87.90;;;;;;5084251;27;89030;-42
2021/12/16 12:26:54;;;;;;;;;;;0.60;88.00;;;;;;5083726;27;89381;-45
2021/12/16 12:29:22;;;;;;;;;;;0.60;87.70;;;;;;5084229;27;87167;-41
2021/12/16 12:31:50;;;;;;;;;;;0.60;87.60;;;;;;5087203;27;88786;-42
2021/12/16 12:34:17;;;;;;;;;;;0.60;87.60;;;;;;5083233;27;87145;-45
2021/12/16 12:36:44;;;;;;;;;;;0.60;87.90;;;;;;5084130;27;88906;-43
2021/12/16 12:39:10;;;;;;;;;;;0.60;87.70;;;;;;5083054;27;90444;-42
2021/12/16 12:41:36;;;;;;;;;;;0.60;87.70;;;;;;5084104;27;87007;-41
2021/12/16 12:44:04;;;;;;;;;;;0.60;87.40;;;;;;5083959;27;89562;-43
2021/12/16 12:46:34;;;;;;;;;;;0.60;87.40;;;;;;5083469;27;89448;-44
2021/12/16 12:49:02;;;;;;;;;;;0.60;87.70;;;;;;5083772;27;87190;-43
2021/12/16 12:51:33;;;;;;;;;;;0.70;87.60;;;;;;5084238;27;88919;-44
2021/12/16 12:53:58;;;;;;;;;;;0.80;87.40;;;;;;5086418;27;89646;-44
2021/12/16 12:56:31;;;;;;;;;;;0.80;87.30;;;;;;5084223;27;88710;-45
2021/12/16 12:58:58;;;;;;;;;;;0.80;87.20;;;;;;5083085;27;89845;-43
2021/12/16 13:01:39;;;;;;;;;;;0.90;87.10;;;;;;5084074;27;87134;-44
2021/12/16 13:04:10;;;;;;;;;;;0.80;87.10;;;;;;5083262;27;89036;-44
2021/12/16 13:06:47;;;;;;;;;;;0.80;86.70;;;;;;5083439;27;89845;-44
2021/12/16 13:09:30;;;;;;;;;;;0.80;87.10;;;;;;5084018;27;87143;-44
2021/12/16 13:11:55;;;;;;;;;;;0.80;87.20;;;;;;5087400;27;88758;-44
2021/12/16 13:14:35;;;;;;;;;;;0.80;87.10;;;;;;5086766;27;89722;-43
2021/12/16 13:17:31;;;;;;;;;;;0.80;87.30;;;;;;5090407;27;86918;-44
2021/12/16 13:23:29;;;;;;;;;;;0.80;87.40;;;;;;5086347;27;86099;-44
2021/12/16 13:26:02;;;;;;;;;;;0.80;87.20;;;;;;5078103;27;86921;-44
2021/12/16 13:31:07;;;;;;;;;;;0.80;87.20;;;;;;5085163;27;87723;-44
2021/12/16 13:33:53;;;;;;;;;;;0.80;87.60;;;;;;5086999;27;90167;-44
2021/12/16 13:36:28;;;;;;;;;;;0.80;87.30;;;;;;5086719;27;88488;-44
2021/12/16 13:38:55;;;;;;;;;;;0.80;87.30;;;;;;5086859;27;86894;-44
2021/12/16 13:41:23;;;;;;;;;;;0.70;87.50;;;;;;5089570;27;88111;-44
2021/12/16 13:44:02;;;;;;;;;;;0.80;87.40;;;;;;5086719;27;87010;-43
2021/12/16 14:03:51;;;;;;;;;;;0.70;87.40;;;;;;5086453;27;87410;-46
2021/12/16 14:06:32;;;;;;;;;;;0.80;87.50;;;;;;5070823;27;90314;-44
2021/12/16 14:09:11;;;;;;;;;;;0.80;87.50;;;;;;5086795;27;86825;-46
2021/12/16 14:14:43;;;;;;;;;;;0.80;87.20;;;;;;5086648;27;86865;-43
2021/12/16 14:17:39;;;;;;;;;;;0.80;87.20;;;;;;5086970;27;88765;-47
2021/12/16 14:23:13;;;;;;;;;;;0.70;87.60;;;;;;5085994;27;87014;-47
2021/12/16 14:47:42;;;;;;;;;;;0.80;87.60;;;;;;5083270;27;86884;-44
2021/12/16 14:50:07;;;;;;;;;;;0.80;87.50;;;;;;5085488;27;89374;-44
2021/12/16 14:52:34;;;;;;;;;;;0.80;87.40;;;;;;5087910;27;88108;-44
2021/12/16 14:55:08;;;;;;;;;;;0.80;87.40;;;;;;5085228;27;88668;-44
2021/12/16 14:57:36;;;;;;;;;;;0.80;87.60;;;;;;5085454;27;87100;-43
2021/12/16 15:00:34;;;;;;;;;;;0.80;87.50;;;;;;5085318;27;88769;-43
2021/12/16 15:03:05;;;;;;;;;;;0.80;88.10;;;;;;5064999;27;89585;-42
2021/12/16 15:05:44;;;;;;;;;;;0.80;87.40;;;;;;5085523;27;87158;-43
2021/12/16 15:08:19;;;;;;;;;;;0.90;87.40;;;;;;5085346;27;88811;-43
2021/12/16 15:10:45;;;;;;;;;;;0.80;87.70;;;;;;5085774;27;88569;-44
2021/12/16 15:13:20;;;;;;;;;;;0.80;87.60;;;;;;5085221;27;87134;-43
2021/12/16 15:16:07;;;;;;;;;;;0.80;87.60;;;;;;5088491;27;86964;-44
2021/12/16 15:45:10;;;;;;;;;;;0.80;87.90;;;;;;5082741;27;88104;-43
2021/12/16 15:47:43;;;;;;;;;;;0.80;87.40;;;;;;5084642;27;87048;-44
2021/12/16 15:50:10;;;;;;;;;;;0.80;87.70;;;;;;5084777;27;88843;-43
2021/12/16 15:52:43;;;;;;;;;;;0.90;87.40;;;;;;5084491;27;89581;-43
2021/12/16 15:55:14;;;;;;;;;;;0.90;87.40;;;;;;5084559;27;86956;-43
2021/12/16 15:57:40;;;;;;;;;;;0.80;87.50;;;;;;5084808;27;88140;-43
2021/12/16 16:00:11;;;;;;;;;;;0.80;87.40;;;;;;5084169;27;89797;-44
2021/12/16 16:02:38;;;;;;;;;;;0.80;87.50;;;;;;5087723;27;86356;-43
2021/12/16 16:05:03;;;;;;;;;;;0.90;87.50;;;;;;5084241;27;89445;-43
2021/12/16 16:07:33;;;;;;;;;;;0.90;87.60;;;;;;5084752;27;87153;-43
2021/12/16 16:09:59;;;;;;;;;;;0.90;87.50;;;;;;5083925;27;88904;-42
2021/12/16 16:12:29;;;;;;;;;;;0.90;87.40;;;;;;5084066;27;88814;-43
2021/12/16 16:14:59;;;;;;;;;;;0.80;87.40;;;;;;5084241;27;87066;-43
2021/12/16 16:17:25;;;;;;;;;;;0.80;87.40;;;;;;5084758;27;88996;-44
2021/12/16 16:19:52;;;;;;;;;;;0.80;87.70;;;;;;5083986;27;89628;-44
2021/12/16 16:22:19;;;;;;;;;;;0.90;87.40;;;;;;5084225;27;87152;-43
2021/12/16 16:24:47;;;;;;;;;;;0.90;87.70;;;;;;5086977;27;87881;-43
2021/12/16 16:27:23;;;;;;;;;;;0.90;87.60;;;;;;5084676;27;86192;-44
2021/12/16 16:29:50;;;;;;;;;;;0.80;87.50;;;;;;5084110;27;88290;-43
2021/12/16 16:32:16;;;;;;;;;;;0.90;87.50;;;;;;5083913;27;89832;-44
2021/12/16 16:34:46;;;;;;;;;;;0.80;87.60;;;;;;5083325;27;88116;-43
2021/12/16 16:37:13;;;;;;;;;;;0.80;87.50;;;;;;5083947;27;88855;-44
2021/12/16 16:39:40;;;;;;;;;;;0.80;87.50;;;;;;5083737;27;88299;-45
2021/12/16 16:42:07;;;;;;;;;;;0.90;87.70;;;;;;5084190;27;87112;-43
2021/12/16 16:44:33;;;;;;;;;;;0.90;87.70;;;;;;5084954;27;89013;-45
2021/12/16 16:47:08;;;;;;;;;;;0.90;87.60;;;;;;5090473;27;89414;-44
2021/12/16 16:49:51;;;;;;;;;;;0.90;87.40;;;;;;5087894;27;87693;-42
2021/12/16 16:52:22;;;;;;;;;;;0.90;87.80;;;;;;5087721;27;88825;-43
2021/12/16 16:54:49;;;;;;;;;;;1.00;87.60;;;;;;5087145;27;87082;-44
2021/12/16 16:57:17;;;;;;;;;;;0.90;87.50;;;;;;5087472;27;88956;-43
2021/12/16 16:59:45;;;;;;;;;;;0.90;87.60;;;;;;5085985;27;90011;-45
2021/12/16 17:02:17;;;;;;;;;;;0.90;87.50;;;;;;5069054;27;87102;-45
2021/12/16 17:04:43;;;;;;;;;;;0.90;87.50;;;;;;5087333;27;88091;-44
2021/12/16 17:07:09;;;;;;;;;;;0.90;87.70;;;;;;5089973;27;89323;-43
2021/12/16 17:09:36;;;;;;;;;;;0.90;87.60;;;;;;5087481;27;88747;-44
2021/12/16 17:12:06;;;;;;;;;;;0.90;87.30;;;;;;5087285;27;88920;-43
2021/12/16 17:14:36;;;;;;;;;;;0.90;87.50;;;;;;5087418;27;87012;-44
2021/12/16 17:19:59;;;;;;;;;;;0.90;87.20;;;;;;5086775;27;87221;-43
2021/12/16 17:22:35;;;;;;;;;;;0.90;87.40;;;;;;5087201;27;87066;-44
2021/12/16 17:25:01;;;;;;;;;;;0.90;87.50;;;;;;5086365;27;88891;-43
2021/12/16 17:27:32;;;;;;;;;;;0.90;87.50;;;;;;5086734;27;89541;-42
2021/12/16 17:30:02;;;;;;;;;;;0.90;87.60;;;;;;5090116;27;86842;-43
2021/12/16 17:32:29;;;;;;;;;;;0.90;87.70;;;;;;5086528;27;88495;-44
2021/12/16 17:35:08;;;;;;;;;;;0.90;87.80;;;;;;5086921;27;87200;-44
2021/12/16 17:37:36;;;;;;;;;;;0.90;87.50;;;;;;5086969;27;88771;-44
2021/12/16 17:40:28;;;;;;;;;;;0.90;87.60;;;;;;5086358;27;89550;-44
2021/12/16 17:42:56;;;;;;;;;;;0.90;87.80;;;;;;5046589;27;87366;-44
2021/12/16 17:45:33;;;;;;;;;;;0.90;87.40;;;;;;5086683;27;88663;-44
2021/12/16 17:48:01;;;;;;;;;;;0.90;87.60;;;;;;5086277;27;89335;-44
2021/12/16 17:50:31;;;;;;;;;;;0.90;87.40;;;;;;5086121;27;88087;-44
2021/12/16 17:52:58;;;;;;;;;;;0.90;87.70;;;;;;5089098;27;89829;-42
2021/12/16 17:55:26;;;;;;;;;;;0.90;87.70;;;;;;5086012;27;87137;-43
2021/12/16 17:57:55;;;;;;;;;;;0.90;87.90;;;;;;5085480;27;87851;-43
2021/12/16 18:00:25;;;;;;;;;;;0.90;87.60;;;;;;5086169;27;89359;-42
2021/12/16 18:02:51;;;;;;;;;;;0.90;87.60;;;;;;5086393;27;87085;-43
2021/12/16 18:05:18;;;;;;;;;;;0.90;87.80;;;;;;5086366;27;89089;-44
2021/12/16 18:07:44;;;;;;;;;;;0.90;87.60;;;;;;5086593;27;88547;-43
2021/12/16 18:10:11;;;;;;;;;;;0.90;87.80;;;;;;5086211;27;87242;-43
2021/12/16 18:12:37;;;;;;;;;;;0.90;87.70;;;;;;5086318;27;89181;-44
2021/12/16 18:15:20;;;;;;;;;;;0.90;87.60;;;;;;5088238;27;90360;-43
2021/12/16 18:17:47;;;;;;;;;;;0.90;87.80;;;;;;5086241;27;89760;-44
2021/12/16 18:20:22;;;;;;;;;;;0.90;87.70;;;;;;5085723;27;89812;-45
2021/12/16 18:22:49;;;;;;;;;;;0.90;87.60;;;;;;5086276;27;87084;-43
2021/12/16 18:25:19;;;;;;;;;;;0.90;87.70;;;;;;5086075;27;89184;-44
2021/12/16 18:27:48;;;;;;;;;;;0.90;87.40;;;;;;5086026;27;89614;-43
2021/12/16 18:30:37;;;;;;;;;;;0.90;87.70;;;;;;5086072;27;87097;-44
2021/12/16 18:33:04;;;;;;;;;;;0.90;87.80;;;;;;5071946;27;88906;-44
2021/12/16 18:35:40;;;;;;;;;;;1.00;87.60;;;;;;5085611;27;89623;-43
2021/12/16 18:38:08;;;;;;;;;;;0.90;87.70;;;;;;5088928;27;86970;-42
2021/12/16 18:40:35;;;;;;;;;;;1.00;87.50;;;;;;5085076;27;90569;-43
2021/12/16 18:43:06;;;;;;;;;;;1.00;87.50;;;;;;5085796;27;87042;-44